createdAt,value
2022-08-28T00:00:11.121Z,59.24
2022-08-28T00:02:41.139Z,59.29
2022-08-28T00:05:14.267Z,60.01
2022-08-28T00:07:47.674Z,59.39
2022-08-28T00:10:18.895Z,59.60
2022-08-28T00:12:50.063Z,59.39
2022-08-28T00:15:23.749Z,59.55
2022-08-28T00:17:53.424Z,60.09
2022-08-28T00:20:26.841Z,59.75
2022-08-28T00:22:57.393Z,59.97
2022-08-28T00:25:28.640Z,59.70
2022-08-28T00:27:57.706Z,59.86
2022-08-28T00:30:31.003Z,59.50
2022-08-28T00:33:04.106Z,59.85
2022-08-28T00:35:36.921Z,59.61
2022-08-28T00:38:06.620Z,59.70
2022-08-28T00:40:37.222Z,60.02
2022-08-28T00:43:09.049Z,60.14
2022-08-28T00:45:40.269Z,60.07
2022-08-28T00:48:11.038Z,60.01
2022-08-28T00:50:56.774Z,59.88
2022-08-28T00:53:32.956Z,60.25
2022-08-28T00:56:08.122Z,60.51
2022-08-28T00:58:43.758Z,60.19
2022-08-28T01:01:14.683Z,60.68
2022-08-28T01:03:45.611Z,60.11
2022-08-28T01:06:20.611Z,60.22
2022-08-28T01:08:50.842Z,60.07
2022-08-28T01:11:21.679Z,60.40
2022-08-28T01:13:54.361Z,60.68
2022-08-28T01:16:30.815Z,60.32
2022-08-28T01:19:03.425Z,60.47
2022-08-28T01:21:40.610Z,60.63
2022-08-28T01:24:15.908Z,60.71
2022-08-28T01:26:45.615Z,60.64
2022-08-28T01:29:16.053Z,60.73
2022-08-28T01:31:46.003Z,60.84
2022-08-28T01:34:15.738Z,61.16
2022-08-28T01:36:48.546Z,60.88
2022-08-28T01:39:22.958Z,60.80
2022-08-28T01:41:54.713Z,60.69
2022-08-28T01:44:26.613Z,61.01
2022-08-28T01:46:57.784Z,61.27
2022-08-28T01:49:29.498Z,61.25
2022-08-28T01:52:00.779Z,61.07
2022-08-28T01:54:35.428Z,60.99
2022-08-28T01:57:05.741Z,61.23
2022-08-28T01:59:35.417Z,61.57
2022-08-28T02:02:05.193Z,61.22
2022-08-28T02:04:35.597Z,61.59
2022-08-28T02:07:05.252Z,61.60
2022-08-28T02:09:37.837Z,61.52
2022-08-28T02:12:07.847Z,61.64
2022-08-28T02:14:38.487Z,62.11
2022-08-28T02:17:08.211Z,62.33
2022-08-28T02:19:37.857Z,62.08
2022-08-28T02:22:09.411Z,62.46
2022-08-28T02:24:41.816Z,62.16
2022-08-28T02:27:11.472Z,62.50
2022-08-28T02:29:41.137Z,62.33
2022-08-28T02:32:10.988Z,62.26
2022-08-28T02:34:42.201Z,62.54
2022-08-28T02:37:13.358Z,62.57
2022-08-28T02:39:45.640Z,62.71
2022-08-28T02:42:15.475Z,62.98
2022-08-28T02:44:46.238Z,62.72
2022-08-28T02:47:16.261Z,62.49
2022-08-28T02:49:45.899Z,62.82
2022-08-28T02:52:15.881Z,62.68
2022-08-28T02:54:48.214Z,62.91
2022-08-28T02:57:17.884Z,63.01
2022-08-28T02:59:47.832Z,63.31
2022-08-28T03:02:17.473Z,63.25
2022-08-28T03:04:48.431Z,63.44
2022-08-28T03:07:19.403Z,63.73
2022-08-28T03:09:51.673Z,63.54
2022-08-28T03:12:24.092Z,63.79
2022-08-28T03:14:53.848Z,64.22
2022-08-28T03:17:24.084Z,64.25
2022-08-28T03:19:53.897Z,64.60
2022-08-28T03:22:44.621Z,64.72
2022-08-28T03:25:14.260Z,64.61
2022-08-28T03:27:43.889Z,64.60
2022-08-28T03:30:14.613Z,64.56
2022-08-28T03:32:44.199Z,64.78
2022-08-28T03:35:14.737Z,64.97
2022-08-28T03:37:44.479Z,64.67
2022-08-28T03:40:17.454Z,65.10
2022-08-28T03:42:53.618Z,64.71
2022-08-28T03:45:24.053Z,65.07
2022-08-28T03:47:55.360Z,64.71
2022-08-28T03:50:25.113Z,65.04
2022-08-28T03:52:56.855Z,64.73
2022-08-28T03:55:29.436Z,64.81
2022-08-28T03:57:59.349Z,64.91
2022-08-28T04:00:29.444Z,64.87
2022-08-28T04:02:59.570Z,64.68
2022-08-28T04:05:29.611Z,64.80
2022-08-28T04:07:59.349Z,64.72
2022-08-28T04:10:33.166Z,64.77
2022-08-28T04:13:03.257Z,64.74
2022-08-28T04:15:32.999Z,65.23
2022-08-28T04:18:02.651Z,65.15
2022-08-28T04:20:32.399Z,65.11
2022-08-28T04:23:03.558Z,65.08
2022-08-28T04:25:36.194Z,65.29
2022-08-28T04:28:06.459Z,65.18
2022-08-28T04:30:36.524Z,65.30
2022-08-28T04:33:06.240Z,65.73
2022-08-28T04:35:35.905Z,65.64
2022-08-28T04:38:06.280Z,65.35
2022-08-28T04:40:41.610Z,65.75
2022-08-28T04:43:11.747Z,65.51
2022-08-28T04:45:42.319Z,65.90
2022-08-28T04:48:13.717Z,65.74
2022-08-28T04:50:43.755Z,65.79
2022-08-28T04:53:14.518Z,66.02
2022-08-28T04:55:54.184Z,65.87
2022-08-28T04:58:25.271Z,65.93
2022-08-28T05:00:56.582Z,66.11
2022-08-28T05:03:26.854Z,65.72
2022-08-28T05:05:57.155Z,65.85
2022-08-28T05:08:28.370Z,65.70
2022-08-28T05:11:01.016Z,65.80
2022-08-28T05:13:31.163Z,65.84
2022-08-28T05:16:00.810Z,66.04
2022-08-28T05:18:30.439Z,65.96
2022-08-28T05:21:01.982Z,65.72
2022-08-28T05:23:32.324Z,65.75
2022-08-28T05:26:04.854Z,65.91
2022-08-28T05:28:34.495Z,65.83
2022-08-28T05:31:11.609Z,65.69
2022-08-28T05:33:41.348Z,65.89
2022-08-28T05:36:12.110Z,65.57
2022-08-28T05:38:42.269Z,65.91
2022-08-28T05:41:14.700Z,65.60
2022-08-28T05:43:44.326Z,65.69
2022-08-28T05:46:16.285Z,65.50
2022-08-28T05:48:48.635Z,65.70
2022-08-28T05:51:22.354Z,65.39
2022-08-28T05:53:52.682Z,65.64
2022-08-28T05:56:29.695Z,65.25
2022-08-28T05:58:59.590Z,65.36
2022-08-28T06:01:30.831Z,65.40
2022-08-28T06:04:02.914Z,65.42
2022-08-28T06:06:35.615Z,65.29
2022-08-28T06:09:08.382Z,65.40
2022-08-28T06:11:46.175Z,65.11
2022-08-28T06:14:17.951Z,65.20
2022-08-28T06:16:49.849Z,64.88
2022-08-28T06:19:20.596Z,64.56
2022-08-28T06:21:51.663Z,64.70
2022-08-28T06:24:21.611Z,64.37
2022-08-28T06:26:54.722Z,64.36
2022-08-28T06:29:29.415Z,64.40
2022-08-28T06:32:01.092Z,64.41
2022-08-28T06:34:30.919Z,64.13
2022-08-28T06:37:00.792Z,64.12
2022-08-28T06:39:30.431Z,63.92
2022-08-28T06:42:02.616Z,63.59
2022-08-28T06:44:32.458Z,63.81
2022-08-28T06:47:03.219Z,63.42
2022-08-28T06:49:34.026Z,63.50
2022-08-28T06:52:03.691Z,63.46
2022-08-28T06:54:33.870Z,63.29
2022-08-28T06:57:07.944Z,62.74
2022-08-28T06:59:37.624Z,62.29
2022-08-28T07:02:09.368Z,61.59
2022-08-28T07:04:39.158Z,61.65
2022-08-28T07:07:10.535Z,60.99
2022-08-28T07:09:48.398Z,60.61
2022-08-28T07:12:21.075Z,60.07
2022-08-28T07:14:50.765Z,59.73
2022-08-28T07:17:20.389Z,59.06
2022-08-28T07:19:50.029Z,58.82
2022-08-28T07:22:19.663Z,58.38
2022-08-28T07:24:49.377Z,58.05
2022-08-28T07:27:21.692Z,57.56
2022-08-28T07:29:52.249Z,57.42
2022-08-28T07:32:22.338Z,57.60
2022-08-28T07:34:52.071Z,57.64
2022-08-28T07:37:22.099Z,57.42
2022-08-28T07:39:51.751Z,58.17
2022-08-28T07:42:36.219Z,58.32
2022-08-28T07:45:06.176Z,57.84
2022-08-28T07:47:38.627Z,56.18
2022-08-28T07:50:08.948Z,53.84
2022-08-28T07:52:38.570Z,52.87
2022-08-28T07:55:09.791Z,51.94
2022-08-28T07:57:43.301Z,49.83
2022-08-28T08:00:14.161Z,47.86
2022-08-28T08:02:43.776Z,46.53
2022-08-28T08:05:14.434Z,47.05
2022-08-28T08:07:44.155Z,47.63
2022-08-28T08:10:19.865Z,47.54
2022-08-28T08:12:53.028Z,46.72
2022-08-28T08:15:23.417Z,44.81
2022-08-28T08:17:53.058Z,43.31
2022-08-28T08:20:22.778Z,42.30
2022-08-28T08:22:52.393Z,40.76
2022-08-28T08:25:22.035Z,39.80
2022-08-28T08:27:54.436Z,38.39
2022-08-28T08:30:24.064Z,37.25
2022-08-28T08:32:53.822Z,37.37
2022-08-28T08:35:24.310Z,37.40
2022-08-28T08:37:53.928Z,37.63
2022-08-28T08:40:23.733Z,38.23
2022-08-28T08:42:58.299Z,38.14
2022-08-28T08:45:29.525Z,36.81
2022-08-28T08:47:59.320Z,35.62
2022-08-28T08:50:31.710Z,34.04
2022-08-28T08:53:16.839Z,32.93
2022-08-28T08:55:50.137Z,32.96
2022-08-28T08:58:27.817Z,32.14
2022-08-28T09:01:03.090Z,31.95
2022-08-28T09:03:46.857Z,31.10
2022-08-28T09:06:22.792Z,30.70
2022-08-28T09:08:57.220Z,30.02
2022-08-28T09:11:34.354Z,29.12
2022-08-28T09:14:11.392Z,29.22
2022-08-28T09:16:43.663Z,28.79
2022-08-28T09:19:15.467Z,27.67
2022-08-28T09:21:47.722Z,28.51
2022-08-28T09:24:23.676Z,28.90
2022-08-28T09:27:00.101Z,28.42
2022-08-28T09:29:35.209Z,27.73
2022-08-28T09:32:20.731Z,27.27
2022-08-28T09:35:08.788Z,26.62
2022-08-28T09:37:39.745Z,26.27
2022-08-28T09:40:54.494Z,25.80
2022-08-28T09:43:26.932Z,26.23
2022-08-28T09:46:03.061Z,25.67
2022-08-28T09:48:37.691Z,25.87
2022-08-28T09:51:09.650Z,26.97
2022-08-28T09:53:41.321Z,27.93
2022-08-28T09:56:14.669Z,28.83
2022-08-28T09:58:46.215Z,29.26
2022-08-28T10:01:32.349Z,29.80
2022-08-28T10:04:12.558Z,28.75
2022-08-28T10:06:43.594Z,29.09
2022-08-28T10:09:19.379Z,28.84
2022-08-28T10:11:55.570Z,29.68
2022-08-28T10:14:38.289Z,30.66
2022-08-28T10:17:18.851Z,31.84
2022-08-28T10:19:53.671Z,33.60
2022-08-28T10:22:31.442Z,35.02
2022-08-28T10:25:11.269Z,36.31
2022-08-28T10:27:53.331Z,36.64
2022-08-28T10:30:25.228Z,37.12
2022-08-28T10:33:19.483Z,38.00
2022-08-28T10:35:51.642Z,38.65
2022-08-28T10:38:23.185Z,39.17
2022-08-28T10:40:56.991Z,39.22
2022-08-28T10:43:32.156Z,39.62
2022-08-28T10:46:04.324Z,39.79
2022-08-28T10:48:42.404Z,40.41
2022-08-28T10:51:16.753Z,41.32
2022-08-28T10:53:50.094Z,41.40
2022-08-28T10:56:22.741Z,41.30
2022-08-28T10:58:55.565Z,41.04
2022-08-28T11:01:29.957Z,41.17
2022-08-28T11:04:04.777Z,41.10
2022-08-28T11:06:38.099Z,41.08
2022-08-28T11:09:27.839Z,42.08
2022-08-28T11:12:02.025Z,42.07
2022-08-28T11:14:34.290Z,42.29
2022-08-28T11:17:07.236Z,42.93
2022-08-28T11:20:01.259Z,43.28
2022-08-28T11:22:32.781Z,43.19
2022-08-28T11:25:09.751Z,42.88
2022-08-28T11:27:41.251Z,42.75
2022-08-28T11:30:36.693Z,42.44
2022-08-28T11:33:11.803Z,42.66
2022-08-28T11:35:58.836Z,42.83
2022-08-28T11:39:13.683Z,43.11
2022-08-28T11:42:32.377Z,42.90
2022-08-28T11:45:02.719Z,42.53
2022-08-28T11:47:40.218Z,42.68
2022-08-28T11:50:18.236Z,42.79
2022-08-28T11:53:20.879Z,42.80
2022-08-28T11:56:09.493Z,42.26
2022-08-28T11:58:45.484Z,41.94
2022-08-28T12:01:16.912Z,41.78
2022-08-28T12:03:48.418Z,41.81
2022-08-28T12:06:18.150Z,41.43
2022-08-28T12:09:12.298Z,41.01
2022-08-28T12:11:56.907Z,40.97
2022-08-28T12:15:07.810Z,41.84
2022-08-28T12:17:52.982Z,41.78
2022-08-28T12:21:01.555Z,41.61
2022-08-28T12:23:41.862Z,41.44
2022-08-28T12:26:17.531Z,42.02
2022-08-28T12:28:52.139Z,41.77
2022-08-28T12:31:55.862Z,41.69
2022-08-28T12:34:34.003Z,40.75
2022-08-28T12:37:05.198Z,40.96
2022-08-28T12:39:35.566Z,40.70
2022-08-28T12:42:06.145Z,40.45
2022-08-28T12:44:38.367Z,40.66
2022-08-28T12:47:08.554Z,40.41
2022-08-28T12:49:40.248Z,40.94
2022-08-28T12:52:12.191Z,40.34
2022-08-28T12:54:47.093Z,40.75
2022-08-28T12:57:18.776Z,40.27
2022-08-28T12:59:52.865Z,40.44
2022-08-28T13:02:28.327Z,40.18
2022-08-28T13:05:00.944Z,40.45
2022-08-28T13:07:32.569Z,40.05
2022-08-28T13:10:04.467Z,39.77
2022-08-28T13:12:44.130Z,39.81
2022-08-28T13:15:48.515Z,40.05
2022-08-28T13:18:43.525Z,39.95
2022-08-28T13:21:34.426Z,39.68
2022-08-28T13:24:29.245Z,39.86
2022-08-28T13:27:03.442Z,39.77
2022-08-28T13:29:33.418Z,39.85
2022-08-28T13:32:07.716Z,39.58
2022-08-28T13:34:38.955Z,39.31
2022-08-28T13:37:45.953Z,39.60
2022-08-28T13:40:45.834Z,39.62
2022-08-28T13:43:10.192Z,39.82
2022-08-28T13:45:43.417Z,39.85
2022-08-28T13:48:17.003Z,39.33
2022-08-28T13:50:48.187Z,39.46
2022-08-28T13:53:20.023Z,39.48
2022-08-28T13:55:51.886Z,39.86
2022-08-28T13:58:21.996Z,39.52
2022-08-28T14:00:52.720Z,39.28
2022-08-28T14:03:37.562Z,39.74
2022-08-28T14:06:11.471Z,38.79
2022-08-28T14:08:41.260Z,38.73
2022-08-28T14:11:12.782Z,38.39
2022-08-28T14:13:47.470Z,39.11
2022-08-28T14:16:25.472Z,39.24
2022-08-28T14:18:59.517Z,38.70
2022-08-28T14:21:29.341Z,38.62
2022-08-28T14:23:58.961Z,38.73
2022-08-28T14:26:28.636Z,38.27
2022-08-28T14:28:58.307Z,38.12
2022-08-28T14:31:28.083Z,38.02
2022-08-28T14:34:00.707Z,38.55
2022-08-28T14:36:32.447Z,38.38
2022-08-28T14:39:06.192Z,38.78
2022-08-28T14:41:36.968Z,38.95
2022-08-28T14:44:09.182Z,38.71
2022-08-28T14:46:40.020Z,39.07
2022-08-28T14:49:14.547Z,38.87
2022-08-28T14:51:45.649Z,38.36
2022-08-28T14:54:17.050Z,38.68
2022-08-28T14:56:48.009Z,38.75
2022-08-28T14:59:24.525Z,38.38
2022-08-28T15:01:55.655Z,38.04
2022-08-28T15:04:29.124Z,38.19
2022-08-28T15:07:01.306Z,38.20
2022-08-28T15:09:31.102Z,38.62
2022-08-28T15:12:00.713Z,38.36
2022-08-28T15:14:31.405Z,38.78
2022-08-28T15:17:01.304Z,38.93
2022-08-28T15:19:33.563Z,38.20
2022-08-28T15:22:04.315Z,38.57
2022-08-28T15:24:36.038Z,38.38
2022-08-28T15:27:05.965Z,38.35
2022-08-28T15:29:35.554Z,37.78
2022-08-28T15:32:05.441Z,38.08
2022-08-28T15:34:38.664Z,37.77
2022-08-28T15:37:08.292Z,37.73
2022-08-28T15:39:50.330Z,37.90
2022-08-28T15:42:19.955Z,37.52
2022-08-28T15:44:49.551Z,38.15
2022-08-28T15:47:19.192Z,38.18
2022-08-28T15:49:57.155Z,38.29
2022-08-28T15:52:27.754Z,38.12
2022-08-28T15:54:57.628Z,38.09
2022-08-28T15:57:27.219Z,38.18
2022-08-28T15:59:57.014Z,37.95
2022-08-28T16:02:27.831Z,38.24
2022-08-28T16:05:00.384Z,37.70
2022-08-28T16:07:30.411Z,38.33
2022-08-28T16:10:00.026Z,38.22
2022-08-28T16:12:29.647Z,38.36
2022-08-28T16:14:59.242Z,38.68
2022-08-28T16:17:28.875Z,38.96
2022-08-28T16:20:01.061Z,38.79
2022-08-28T16:22:30.636Z,38.69
2022-08-28T16:25:00.229Z,38.76
2022-08-28T16:27:29.965Z,39.34
2022-08-28T16:29:59.629Z,39.23
2022-08-28T16:32:29.413Z,38.92
2022-08-28T16:35:02.777Z,38.96
2022-08-28T16:37:39.864Z,39.18
2022-08-28T16:40:11.687Z,39.50
2022-08-28T16:42:51.469Z,39.49
2022-08-28T16:45:21.544Z,39.44
2022-08-28T16:47:51.812Z,39.72
2022-08-28T16:50:24.658Z,39.23
2022-08-28T16:52:54.276Z,39.60
2022-08-28T16:55:23.983Z,39.36
2022-08-28T16:57:53.573Z,39.94
2022-08-28T17:00:24.016Z,39.59
2022-08-28T17:02:54.448Z,39.57
2022-08-28T17:05:27.321Z,39.87
2022-08-28T17:07:56.957Z,40.10
2022-08-28T17:10:27.259Z,40.08
2022-08-28T17:12:56.880Z,39.97
2022-08-28T17:15:26.526Z,39.79
2022-08-28T17:17:56.182Z,39.82
2022-08-28T17:20:41.087Z,40.00
2022-08-28T17:23:10.742Z,39.78
2022-08-28T17:25:40.348Z,40.11
2022-08-28T17:28:10.694Z,39.93
2022-08-28T17:30:40.471Z,40.20
2022-08-28T17:33:10.062Z,40.84
2022-08-28T17:35:42.445Z,40.50
2022-08-28T17:38:12.157Z,40.61
2022-08-28T17:40:41.937Z,40.83
2022-08-28T17:43:11.562Z,40.80
2022-08-28T17:45:41.211Z,40.67
2022-08-28T17:48:10.861Z,40.80
2022-08-28T17:50:43.070Z,41.03
2022-08-28T17:53:12.677Z,41.60
2022-08-28T17:55:42.331Z,41.25
2022-08-28T17:58:12.059Z,41.70
2022-08-28T18:00:42.315Z,42.08
2022-08-28T18:03:12.124Z,42.39
2022-08-28T18:05:44.838Z,42.23
2022-08-28T18:08:15.447Z,42.36
2022-08-28T18:10:45.737Z,42.61
2022-08-28T18:13:15.512Z,43.17
2022-08-28T18:15:45.294Z,43.42
2022-08-28T18:18:20.807Z,43.36
2022-08-28T18:20:59.259Z,43.80
2022-08-28T18:23:28.984Z,43.77
2022-08-28T18:25:58.629Z,43.91
2022-08-28T18:28:28.796Z,44.60
2022-08-28T18:30:58.451Z,44.58
2022-08-28T18:33:28.356Z,44.93
2022-08-28T18:36:01.108Z,44.99
2022-08-28T18:38:34.986Z,45.48
2022-08-28T18:41:06.954Z,45.37
2022-08-28T18:43:37.335Z,45.74
2022-08-28T18:46:08.875Z,45.31
2022-08-28T18:48:39.161Z,45.88
2022-08-28T18:51:12.675Z,45.84
2022-08-28T18:53:43.371Z,45.94
2022-08-28T18:56:13.386Z,45.88
2022-08-28T18:58:43.072Z,46.05
2022-08-28T19:01:13.238Z,45.95
2022-08-28T19:03:42.883Z,46.29
2022-08-28T19:06:17.926Z,46.09
2022-08-28T19:08:47.845Z,46.23
2022-08-28T19:11:17.496Z,46.48
2022-08-28T19:13:47.462Z,46.36
2022-08-28T19:16:20.529Z,46.70
2022-08-28T19:18:51.454Z,46.72
2022-08-28T19:21:26.214Z,46.76
2022-08-28T19:23:56.532Z,46.59
2022-08-28T19:26:26.501Z,46.74
2022-08-28T19:28:56.359Z,47.30
2022-08-28T19:31:26.931Z,47.19
2022-08-28T19:33:57.075Z,47.27
2022-08-28T19:36:30.346Z,47.17
2022-08-28T19:39:00.957Z,47.44
2022-08-28T19:41:32.488Z,46.96
2022-08-28T19:44:02.301Z,47.33
2022-08-28T19:46:31.994Z,47.71
2022-08-28T19:49:03.313Z,47.26
2022-08-28T19:51:35.742Z,47.77
2022-08-28T19:54:05.894Z,47.82
2022-08-28T19:56:37.396Z,47.74
2022-08-28T19:59:08.915Z,48.19
2022-08-28T20:01:40.743Z,47.90
2022-08-28T20:04:13.469Z,48.30
2022-08-28T20:06:45.857Z,48.04
2022-08-28T20:09:15.511Z,48.49
2022-08-28T20:11:46.930Z,48.39
2022-08-28T20:14:17.659Z,48.45
2022-08-28T20:16:48.817Z,48.47
2022-08-28T20:19:18.802Z,48.71
2022-08-28T20:21:52.166Z,48.95
2022-08-28T20:24:24.141Z,48.96
2022-08-28T20:26:54.528Z,49.25
2022-08-28T20:29:24.481Z,49.11
2022-08-28T20:31:54.512Z,49.54
2022-08-28T20:34:24.294Z,49.49
2022-08-28T20:36:56.562Z,49.60
2022-08-28T20:39:26.227Z,49.91
2022-08-28T20:41:55.890Z,50.02
2022-08-28T20:44:25.801Z,50.04
2022-08-28T20:46:55.864Z,50.31
2022-08-28T20:49:25.779Z,50.07
2022-08-28T20:52:01.345Z,50.18
2022-08-28T20:54:33.086Z,50.61
2022-08-28T20:57:04.586Z,50.74
2022-08-28T20:59:39.674Z,50.79
2022-08-28T21:02:11.611Z,50.94
2022-08-28T21:04:42.412Z,51.09
2022-08-28T21:07:15.537Z,51.06
2022-08-28T21:10:06.025Z,51.14
2022-08-28T21:12:35.071Z,51.60
2022-08-28T21:15:04.852Z,51.86
2022-08-28T21:17:34.521Z,52.13
2022-08-28T21:20:10.468Z,52.17
2022-08-28T21:22:43.086Z,52.39
2022-08-28T21:25:13.713Z,52.25
2022-08-28T21:27:43.361Z,52.47
2022-08-28T21:30:15.563Z,52.72
2022-08-28T21:32:45.368Z,53.13
2022-08-28T21:35:16.129Z,53.51
2022-08-28T21:37:48.789Z,53.52
2022-08-28T21:40:19.472Z,53.78
2022-08-28T21:42:49.483Z,53.71
2022-08-28T21:45:19.142Z,53.87
2022-08-28T21:47:48.778Z,53.78
2022-08-28T21:50:19.312Z,54.32
2022-08-28T21:52:51.507Z,54.62
2022-08-28T21:55:21.137Z,54.63
2022-08-28T21:57:51.431Z,54.71
2022-08-28T22:00:23.689Z,55.08
2022-08-28T22:02:53.429Z,55.35
2022-08-28T22:05:23.333Z,55.16
2022-08-28T22:07:55.540Z,55.44
2022-08-28T22:10:26.255Z,55.70
2022-08-28T22:12:55.871Z,56.17
2022-08-28T22:15:25.599Z,56.38
2022-08-28T22:17:55.203Z,56.54
2022-08-28T22:20:24.868Z,56.73
2022-08-28T22:23:09.789Z,56.85
2022-08-28T22:25:40.891Z,57.17
2022-08-28T22:28:11.911Z,57.16
2022-08-28T22:30:41.529Z,57.33
2022-08-28T22:33:11.797Z,57.55
2022-08-28T22:35:41.515Z,57.46
2022-08-28T22:38:13.910Z,57.55
2022-08-28T22:40:43.805Z,57.35
2022-08-28T22:43:13.528Z,57.90
2022-08-28T22:45:43.360Z,57.72
2022-08-28T22:48:13.466Z,57.70
2022-08-28T22:50:43.241Z,57.81
2022-08-28T22:53:15.717Z,58.21
2022-08-28T22:55:46.012Z,58.18
2022-08-28T22:58:15.724Z,58.47
2022-08-28T23:00:45.496Z,58.63
2022-08-28T23:03:15.205Z,58.81
2022-08-28T23:05:44.897Z,58.89
2022-08-28T23:08:17.115Z,59.07
2022-08-28T23:10:58.983Z,59.05
2022-08-28T23:13:29.243Z,59.00
2022-08-28T23:15:58.865Z,59.10
2022-08-28T23:18:28.642Z,59.17
2022-08-28T23:20:58.468Z,59.34
2022-08-28T23:23:31.089Z,59.51
2022-08-28T23:26:00.725Z,59.18
2022-08-28T23:28:30.354Z,59.27
2022-08-28T23:31:00.003Z,59.52
2022-08-28T23:33:29.739Z,59.69
2022-08-28T23:35:59.381Z,59.53
2022-08-28T23:38:31.665Z,60.05
2022-08-28T23:41:02.135Z,59.71
2022-08-28T23:43:32.808Z,60.11
2022-08-28T23:46:02.547Z,60.23
2022-08-28T23:48:32.317Z,60.50
2022-08-28T23:51:01.949Z,60.46
2022-08-28T23:53:35.475Z,60.91
2022-08-28T23:56:05.557Z,60.92
2022-08-28T23:58:35.209Z,61.15
